PWSweather.com
Personal Weather Stations
Station Observations

ChardChardGB

Lat: 50.877408, Lon: -2.94964741

Elevation: 341

Station Type: WS3083

http://www.merriott-astro.co.uk/weather/index.htm

High Low Average
Temperature 32.0°F0.0°C 28.4°F-2.0°C 29.6°F-1.3°C
Dew Point 26.3°F-3.2°C 19.2°F-7.1°C 22.4°F-5.3°C
Winds 13.2 mph 21.2 kmh 4.6 mph 7.4 kmh 7.0 mph NE11.3 kmh NE
Wind Gusts 19.0 mph30.6 kmh 5.4 mph8.7 kmh 9.0 mph14.5 kmh
Humidity 81% 63% 74%
Pressure 29.48 in998.3 mb 29.26 in990.9 mb -
Precipitation 0.00 in0.0 mm - -
Hour Temp Dew Point Humidity Winds Wind Gusts Pressure Precip Precip Rate Daily Precip Total
12:00 AM 29.1°F-1.6°C 22.2°F-5.4°C 75% 7.7 mph NE12.4 kmh NE 9.8 mph15.8 kmh 29.29 in991.9 mb 0.00 in0.0 mm 0.00 in0.0 mm 0.00 in0.0 mm
12:10 AM 28.9°F-1.7°C 22.4°F-5.3°C 76% 6.5 mph NE10.5 kmh NE 10.7 mph17.2 kmh 29.30 in992.2 mb 0.00 in0.0 mm 0.00 in0.0 mm 0.00 in0.0 mm
12:20 AM 28.9°F-1.7°C 22.4°F-5.3°C 76% 6.2 mph NNE10.0 kmh NNE 7.6 mph12.2 kmh 29.30 in992.2 mb 0.00 in0.0 mm 0.00 in0.0 mm 0.00 in0.0 mm
12:30 AM 28.9°F-1.7°C 22.7°F-5.2°C 77% 6.3 mph E10.1 kmh E 8.3 mph13.4 kmh 29.30 in992.2 mb 0.00 in0.0 mm 0.00 in0.0 mm 0.00 in0.0 mm
12:40 AM 28.9°F-1.7°C 22.7°F-5.2°C 77% 5.1 mph NE8.2 kmh NE 6.0 mph9.7 kmh 29.29 in991.9 mb 0.00 in0.0 mm 0.00 in0.0 mm 0.00 in0.0 mm
12:50 AM 28.8°F-1.8°C 22.8°F-5.1°C 78% 6.4 mph NE10.3 kmh NE 7.6 mph12.2 kmh 29.29 in991.9 mb 0.00 in0.0 mm 0.00 in0.0 mm 0.00 in0.0 mm
01:00 AM 28.8°F-1.8°C 22.8°F-5.1°C 78% 5.9 mph NE9.5 kmh NE 8.3 mph13.4 kmh 29.29 in991.9 mb 0.00 in0.0 mm 0.00 in0.0 mm 0.00 in0.0 mm
01:10 AM 28.6°F-1.9°C 22.9°F-5.1°C 79% 8.0 mph NE12.9 kmh NE 11.4 mph18.3 kmh 29.29 in991.9 mb 0.00 in0.0 mm 0.00 in0.0 mm 0.00 in0.0 mm
01:20 AM 28.6°F-1.9°C 22.9°F-5.1°C 79% 6.7 mph ENE10.8 kmh ENE 9.8 mph15.8 kmh 29.29 in991.9 mb 0.00 in0.0 mm 0.00 in0.0 mm 0.00 in0.0 mm
01:30 AM 28.6°F-1.9°C 22.9°F-5.1°C 79% 6.3 mph ENE10.1 kmh ENE 6.9 mph11.1 kmh 29.29 in991.9 mb 0.00 in0.0 mm 0.00 in0.0 mm 0.00 in0.0 mm
01:40 AM 28.6°F-1.9°C 23.2°F-4.9°C 80% 6.8 mph ENE10.9 kmh ENE 9.2 mph14.8 kmh 29.28 in991.5 mb 0.00 in0.0 mm 0.00 in0.0 mm 0.00 in0.0 mm
01:50 AM 28.6°F-1.9°C 23.2°F-4.9°C 80% 6.4 mph NE10.3 kmh NE 8.3 mph13.4 kmh 29.28 in991.5 mb 0.00 in0.0 mm 0.00 in0.0 mm 0.00 in0.0 mm
02:00 AM 28.6°F-1.9°C 23.2°F-4.9°C 80% 6.0 mph NE9.7 kmh NE 8.3 mph13.4 kmh 29.28 in991.5 mb 0.00 in0.0 mm 0.00 in0.0 mm 0.00 in0.0 mm
02:10 AM 28.4°F-2.0°C 23.0°F-5.0°C 80% 7.3 mph NE11.7 kmh NE 10.7 mph17.2 kmh 29.28 in991.5 mb 0.00 in0.0 mm 0.00 in0.0 mm 0.00 in0.0 mm
02:20 AM 28.4°F-2.0°C 23.0°F-5.0°C 80% 6.7 mph NE10.8 kmh NE 9.8 mph15.8 kmh 29.27 in991.2 mb 0.00 in0.0 mm 0.00 in0.0 mm 0.00 in0.0 mm
02:30 AM 28.4°F-2.0°C 23.0°F-5.0°C 80% 6.2 mph NE10.0 kmh NE 8.3 mph13.4 kmh 29.27 in991.2 mb 0.00 in0.0 mm 0.00 in0.0 mm 0.00 in0.0 mm
02:40 AM 28.4°F-2.0°C 23.0°F-5.0°C 80% 5.6 mph E9.0 kmh E 7.6 mph12.2 kmh 29.27 in991.2 mb 0.00 in0.0 mm 0.00 in0.0 mm 0.00 in0.0 mm
02:50 AM 28.4°F-2.0°C 23.0°F-5.0°C 80% 6.0 mph NE9.7 kmh NE 7.6 mph12.2 kmh 29.27 in991.2 mb 0.00 in0.0 mm 0.00 in0.0 mm 0.00 in0.0 mm
03:00 AM 28.4°F-2.0°C 23.0°F-5.0°C 80% 5.8 mph ENE9.3 kmh ENE 8.3 mph13.4 kmh 29.27 in991.2 mb 0.00 in0.0 mm 0.00 in0.0 mm 0.00 in0.0 mm
03:10 AM 28.4°F-2.0°C 23.0°F-5.0°C 80% 5.4 mph E8.7 kmh E 5.4 mph8.7 kmh 29.27 in991.2 mb 0.00 in0.0 mm 0.00 in0.0 mm 0.00 in0.0 mm
03:20 AM 28.4°F-2.0°C 23.0°F-5.0°C 80% 5.4 mph E8.7 kmh E 5.4 mph8.7 kmh 29.27 in991.2 mb 0.00 in0.0 mm 0.00 in0.0 mm 0.00 in0.0 mm
03:30 AM 28.4°F-2.0°C 23.0°F-5.0°C 80% 5.4 mph E8.7 kmh E 5.4 mph8.7 kmh 29.27 in991.2 mb 0.00 in0.0 mm 0.00 in0.0 mm 0.00 in0.0 mm
03:40 AM 28.4°F-2.0°C 23.0°F-5.0°C 80% 5.4 mph E8.7 kmh E 5.4 mph8.7 kmh 29.27 in991.2 mb 0.00 in0.0 mm 0.00 in0.0 mm 0.00 in0.0 mm
03:50 AM 28.4°F-2.0°C 23.0°F-5.0°C 80% 5.4 mph E8.7 kmh E 5.4 mph8.7 kmh 29.27 in991.2 mb 0.00 in0.0 mm 0.00 in0.0 mm 0.00 in0.0 mm
04:00 AM 28.4°F-2.0°C 23.0°F-5.0°C 80% 5.4 mph E8.7 kmh E 5.4 mph8.7 kmh 29.26 in990.9 mb 0.00 in0.0 mm 0.00 in0.0 mm 0.00 in0.0 mm
04:10 AM 28.4°F-2.0°C 23.0°F-5.0°C 80% 5.4 mph E8.7 kmh E 5.4 mph8.7 kmh 29.26 in990.9 mb 0.00 in0.0 mm 0.00 in0.0 mm 0.00 in0.0 mm
04:20 AM 28.4°F-2.0°C 23.0°F-5.0°C 80% 5.4 mph E8.7 kmh E 5.4 mph8.7 kmh 29.27 in991.2 mb 0.00 in0.0 mm 0.00 in0.0 mm 0.00 in0.0 mm
04:30 AM 28.4°F-2.0°C 23.0°F-5.0°C 80% 5.4 mph E8.7 kmh E 5.4 mph8.7 kmh 29.27 in991.2 mb 0.00 in0.0 mm 0.00 in0.0 mm 0.00 in0.0 mm
04:40 AM 28.4°F-2.0°C 23.0°F-5.0°C 80% 5.4 mph E8.7 kmh E 5.4 mph8.7 kmh 29.27 in991.2 mb 0.00 in0.0 mm 0.00 in0.0 mm 0.00 in0.0 mm
04:50 AM 28.4°F-2.0°C 23.0°F-5.0°C 80% 5.4 mph E8.7 kmh E 5.4 mph8.7 kmh 29.27 in991.2 mb 0.00 in0.0 mm 0.00 in0.0 mm 0.00 in0.0 mm
05:00 AM 28.4°F-2.0°C 23.0°F-5.0°C 80% 5.4 mph E8.7 kmh E 5.4 mph8.7 kmh 29.27 in991.2 mb 0.00 in0.0 mm 0.00 in0.0 mm 0.00 in0.0 mm
05:10 AM 28.4°F-2.0°C 23.0°F-5.0°C 80% 5.4 mph E8.7 kmh E 5.4 mph8.7 kmh 29.27 in991.2 mb 0.00 in0.0 mm 0.00 in0.0 mm 0.00 in0.0 mm
05:20 AM 28.4°F-2.0°C 23.0°F-5.0°C 80% 5.4 mph E8.7 kmh E 5.4 mph8.7 kmh 29.27 in991.2 mb 0.00 in0.0 mm 0.00 in0.0 mm 0.00 in0.0 mm
05:30 AM 28.4°F-2.0°C 23.0°F-5.0°C 80% 5.4 mph E8.7 kmh E 5.4 mph8.7 kmh 29.27 in991.2 mb 0.00 in0.0 mm 0.00 in0.0 mm 0.00 in0.0 mm
05:40 AM 28.4°F-2.0°C 23.0°F-5.0°C 80% 5.4 mph E8.7 kmh E 5.4 mph8.7 kmh 29.27 in991.2 mb 0.00 in0.0 mm 0.00 in0.0 mm 0.00 in0.0 mm
05:50 AM 28.4°F-2.0°C 23.0°F-5.0°C 80% 5.4 mph E8.7 kmh E 5.4 mph8.7 kmh 29.27 in991.2 mb 0.00 in0.0 mm 0.00 in0.0 mm 0.00 in0.0 mm
06:00 AM 28.4°F-2.0°C 23.0°F-5.0°C 80% 5.4 mph E8.7 kmh E 5.4 mph8.7 kmh 29.27 in991.2 mb 0.00 in0.0 mm 0.00 in0.0 mm 0.00 in0.0 mm
06:10 AM 28.4°F-2.0°C 23.0°F-5.0°C 80% 5.4 mph E8.7 kmh E 5.4 mph8.7 kmh 29.28 in991.5 mb 0.00 in0.0 mm 0.00 in0.0 mm 0.00 in0.0 mm
06:20 AM 28.4°F-2.0°C 23.0°F-5.0°C 80% 5.4 mph E8.7 kmh E 5.4 mph8.7 kmh 29.28 in991.5 mb 0.00 in0.0 mm 0.00 in0.0 mm 0.00 in0.0 mm
06:30 AM 28.4°F-2.0°C 23.0°F-5.0°C 80% 5.4 mph E8.7 kmh E 5.4 mph8.7 kmh 29.28 in991.5 mb 0.00 in0.0 mm 0.00 in0.0 mm 0.00 in0.0 mm
06:40 AM 28.4°F-2.0°C 23.0°F-5.0°C 80% 5.4 mph E8.7 kmh E 5.4 mph8.7 kmh 29.29 in991.9 mb 0.00 in0.0 mm 0.00 in0.0 mm 0.00 in0.0 mm
06:50 AM 28.4°F-2.0°C 23.0°F-5.0°C 80% 5.4 mph E8.7 kmh E 5.4 mph8.7 kmh 29.29 in991.9 mb 0.00 in0.0 mm 0.00 in0.0 mm 0.00 in0.0 mm
07:00 AM 28.4°F-2.0°C 23.0°F-5.0°C 80% 5.4 mph E8.7 kmh E 5.4 mph8.7 kmh 29.30 in992.2 mb 0.00 in0.0 mm 0.00 in0.0 mm 0.00 in0.0 mm
07:10 AM 28.4°F-2.0°C 23.0°F-5.0°C 80% 5.4 mph E8.7 kmh E 5.4 mph8.7 kmh 29.29 in991.9 mb 0.00 in0.0 mm 0.00 in0.0 mm 0.00 in0.0 mm
07:20 AM 28.4°F-2.0°C 23.0°F-5.0°C 80% 5.4 mph E8.7 kmh E 5.4 mph8.7 kmh 29.30 in992.2 mb 0.00 in0.0 mm 0.00 in0.0 mm 0.00 in0.0 mm
07:30 AM 28.4°F-2.0°C 23.0°F-5.0°C 80% 5.4 mph E8.7 kmh E 5.4 mph8.7 kmh 29.31 in992.6 mb 0.00 in0.0 mm 0.00 in0.0 mm 0.00 in0.0 mm
07:40 AM 28.4°F-2.0°C 23.0°F-5.0°C 80% 5.4 mph E8.7 kmh E 5.4 mph8.7 kmh 29.30 in992.2 mb 0.00 in0.0 mm 0.00 in0.0 mm 0.00 in0.0 mm
07:50 AM 28.4°F-2.0°C 23.0°F-5.0°C 80% 5.4 mph E8.7 kmh E 5.4 mph8.7 kmh 29.31 in992.6 mb 0.00 in0.0 mm 0.00 in0.0 mm 0.00 in0.0 mm
08:00 AM 28.4°F-2.0°C 23.0°F-5.0°C 80% 5.4 mph E8.7 kmh E 5.4 mph8.7 kmh 29.31 in992.6 mb 0.00 in0.0 mm 0.00 in0.0 mm 0.00 in0.0 mm
08:10 AM 28.4°F-2.0°C 23.0°F-5.0°C 80% 5.4 mph E8.7 kmh E 5.4 mph8.7 kmh 29.32 in992.9 mb 0.00 in0.0 mm 0.00 in0.0 mm 0.00 in0.0 mm
08:20 AM 28.4°F-2.0°C 23.0°F-5.0°C 80% 5.4 mph E8.7 kmh E 5.4 mph8.7 kmh 29.32 in992.9 mb 0.00 in0.0 mm 0.00 in0.0 mm 0.00 in0.0 mm
08:30 AM 28.4°F-2.0°C 23.0°F-5.0°C 80% 5.4 mph E8.7 kmh E 5.4 mph8.7 kmh 29.32 in992.9 mb 0.00 in0.0 mm 0.00 in0.0 mm 0.00 in0.0 mm
08:40 AM 28.4°F-2.0°C 23.0°F-5.0°C 80% 5.4 mph E8.7 kmh E 5.4 mph8.7 kmh 29.32 in992.9 mb 0.00 in0.0 mm 0.00 in0.0 mm 0.00 in0.0 mm
08:50 AM 28.4°F-2.0°C 23.0°F-5.0°C 80% 5.4 mph E8.7 kmh E 5.4 mph8.7 kmh 29.33 in993.2 mb 0.00 in0.0 mm 0.00 in0.0 mm 0.00 in0.0 mm
09:00 AM 28.4°F-2.0°C 23.0°F-5.0°C 80% 5.4 mph E8.7 kmh E 5.4 mph8.7 kmh 29.33 in993.2 mb 0.00 in0.0 mm 0.00 in0.0 mm 0.00 in0.0 mm
09:10 AM 28.4°F-2.0°C 23.0°F-5.0°C 80% 5.4 mph E8.7 kmh E 5.4 mph8.7 kmh 29.33 in993.2 mb 0.00 in0.0 mm 0.00 in0.0 mm 0.00 in0.0 mm
09:20 AM 28.4°F-2.0°C 23.0°F-5.0°C 80% 5.4 mph E8.7 kmh E 5.4 mph8.7 kmh 29.34 in993.6 mb 0.00 in0.0 mm 0.00 in0.0 mm 0.00 in0.0 mm
09:30 AM 28.4°F-2.0°C 23.0°F-5.0°C 80% 5.4 mph E8.7 kmh E 5.4 mph8.7 kmh 29.34 in993.6 mb 0.00 in0.0 mm 0.00 in0.0 mm 0.00 in0.0 mm
09:40 AM 28.4°F-2.0°C 23.0°F-5.0°C 80% 5.4 mph E8.7 kmh E 5.4 mph8.7 kmh 29.34 in993.6 mb 0.00 in0.0 mm 0.00 in0.0 mm 0.00 in0.0 mm
09:50 AM 28.4°F-2.0°C 23.0°F-5.0°C 80% 5.4 mph E8.7 kmh E 5.4 mph8.7 kmh 29.34 in993.6 mb 0.00 in0.0 mm 0.00 in0.0 mm 0.00 in0.0 mm
10:00 AM 30.4°F-0.9°C 25.0°F-3.9°C 80% 5.5 mph NE8.9 kmh NE 9.2 mph14.8 kmh 29.34 in993.6 mb 0.00 in0.0 mm 0.00 in0.0 mm 0.00 in0.0 mm
10:10 AM 30.6°F-0.8°C 25.1°F-3.8°C 80% 5.4 mph NE8.7 kmh NE 7.6 mph12.2 kmh 29.35 in993.9 mb 0.00 in0.0 mm 0.00 in0.0 mm 0.00 in0.0 mm
10:20 AM 30.6°F-0.8°C 25.1°F-3.8°C 80% 5.4 mph ENE8.7 kmh ENE 8.3 mph13.4 kmh 29.34 in993.6 mb 0.00 in0.0 mm 0.00 in0.0 mm 0.00 in0.0 mm
10:30 AM 30.7°F-0.7°C 25.3°F-3.7°C 80% 6.0 mph NE9.7 kmh NE 7.6 mph12.2 kmh 29.35 in993.9 mb 0.00 in0.0 mm 0.00 in0.0 mm 0.00 in0.0 mm
10:40 AM 30.6°F-0.8°C 25.1°F-3.8°C 80% 6.0 mph NE9.7 kmh NE 7.6 mph12.2 kmh 29.35 in993.9 mb 0.00 in0.0 mm 0.00 in0.0 mm 0.00 in0.0 mm
10:50 AM 30.4°F-0.9°C 25.0°F-3.9°C 80% 6.2 mph ENE10.0 kmh ENE 9.2 mph14.8 kmh 29.34 in993.6 mb 0.00 in0.0 mm 0.00 in0.0 mm 0.00 in0.0 mm
11:00 AM 30.6°F-0.8°C 25.1°F-3.8°C 80% 5.2 mph NE8.4 kmh NE 6.0 mph9.7 kmh 29.35 in993.9 mb 0.00 in0.0 mm 0.00 in0.0 mm 0.00 in0.0 mm
11:10 AM 30.6°F-0.8°C 25.1°F-3.8°C 80% 6.0 mph NE9.7 kmh NE 7.6 mph12.2 kmh 29.35 in993.9 mb 0.00 in0.0 mm 0.00 in0.0 mm 0.00 in0.0 mm
11:20 AM 30.7°F-0.7°C 25.3°F-3.7°C 80% 4.6 mph NE7.4 kmh NE 6.0 mph9.7 kmh 29.35 in993.9 mb 0.00 in0.0 mm 0.00 in0.0 mm 0.00 in0.0 mm
11:30 AM 30.7°F-0.7°C 25.3°F-3.7°C 80% 5.2 mph NE8.4 kmh NE 6.9 mph11.1 kmh 29.35 in993.9 mb 0.00 in0.0 mm 0.00 in0.0 mm 0.00 in0.0 mm
11:40 AM 30.7°F-0.7°C 25.6°F-3.6°C 81% 5.6 mph NE9.0 kmh NE 7.6 mph12.2 kmh 29.35 in993.9 mb 0.00 in0.0 mm 0.00 in0.0 mm 0.00 in0.0 mm
11:50 AM 30.6°F-0.8°C 25.4°F-3.7°C 81% 5.3 mph NE8.5 kmh NE 6.9 mph11.1 kmh 29.34 in993.6 mb 0.00 in0.0 mm 0.00 in0.0 mm 0.00 in0.0 mm
12:00 PM 30.6°F-0.8°C 25.4°F-3.7°C 81% 6.3 mph NE10.1 kmh NE 10.7 mph17.2 kmh 29.35 in993.9 mb 0.00 in0.0 mm 0.00 in0.0 mm 0.00 in0.0 mm
12:10 PM 30.4°F-0.9°C 25.3°F-3.7°C 81% 6.5 mph ENE10.5 kmh ENE 8.3 mph13.4 kmh 29.35 in993.9 mb 0.00 in0.0 mm 0.00 in0.0 mm 0.00 in0.0 mm
12:20 PM 30.4°F-0.9°C 25.3°F-3.7°C 81% 6.6 mph NE10.6 kmh NE 8.3 mph13.4 kmh 29.35 in993.9 mb 0.00 in0.0 mm 0.00 in0.0 mm 0.00 in0.0 mm
12:30 PM 30.6°F-0.8°C 25.4°F-3.7°C 81% 6.0 mph NE9.7 kmh NE 9.2 mph14.8 kmh 29.35 in993.9 mb 0.00 in0.0 mm 0.00 in0.0 mm 0.00 in0.0 mm
12:40 PM 30.7°F-0.7°C 25.6°F-3.6°C 81% 6.5 mph NE10.5 kmh NE 7.6 mph12.2 kmh 29.35 in993.9 mb 0.00 in0.0 mm 0.00 in0.0 mm 0.00 in0.0 mm
12:50 PM 31.3°F-0.4°C 26.1°F-3.3°C 81% 6.8 mph ENE10.9 kmh ENE 9.8 mph15.8 kmh 29.35 in993.9 mb 0.00 in0.0 mm 0.00 in0.0 mm 0.00 in0.0 mm
01:00 PM 31.3°F-0.4°C 26.1°F-3.3°C 81% 9.8 mph NE15.8 kmh NE 13.6 mph21.9 kmh 29.35 in993.9 mb 0.00 in0.0 mm 0.00 in0.0 mm 0.00 in0.0 mm
01:10 PM 31.5°F-0.3°C 26.3°F-3.2°C 81% 8.9 mph NE14.3 kmh NE 11.4 mph18.3 kmh 29.35 in993.9 mb 0.00 in0.0 mm 0.00 in0.0 mm 0.00 in0.0 mm
01:20 PM 31.6°F-0.2°C 26.2°F-3.2°C 80% 8.7 mph NE14.0 kmh NE 11.4 mph18.3 kmh 29.35 in993.9 mb 0.00 in0.0 mm 0.00 in0.0 mm 0.00 in0.0 mm
01:30 PM 31.8°F-0.1°C 26.1°F-3.3°C 79% 8.7 mph NE14.0 kmh NE 13.0 mph20.9 kmh 29.35 in993.9 mb 0.00 in0.0 mm 0.00 in0.0 mm 0.00 in0.0 mm
01:40 PM 32.0°F0.0°C 25.6°F-3.6°C 77% 6.5 mph NE10.5 kmh NE 10.7 mph17.2 kmh 29.36 in994.2 mb 0.00 in0.0 mm 0.00 in0.0 mm 0.00 in0.0 mm
01:50 PM 32.0°F0.0°C 24.7°F-4.1°C 74% 7.8 mph NE12.6 kmh NE 10.7 mph17.2 kmh 29.36 in994.2 mb 0.00 in0.0 mm 0.00 in0.0 mm 0.00 in0.0 mm
02:00 PM 32.0°F0.0°C 24.0°F-4.4°C 72% 8.8 mph NE14.2 kmh NE 12.1 mph19.5 kmh 29.36 in994.2 mb 0.00 in0.0 mm 0.00 in0.0 mm 0.00 in0.0 mm
02:10 PM 32.0°F0.0°C 23.4°F-4.8°C 70% 11.0 mph NE17.7 kmh NE 15.9 mph25.6 kmh 29.37 in994.6 mb 0.00 in0.0 mm 0.00 in0.0 mm 0.00 in0.0 mm
02:20 PM 32.0°F0.0°C 23.0°F-5.0°C 69% 8.0 mph NE12.9 kmh NE 14.5 mph23.3 kmh 29.37 in994.6 mb 0.00 in0.0 mm 0.00 in0.0 mm 0.00 in0.0 mm
02:30 PM 32.0°F0.0°C 23.0°F-5.0°C 69% 9.5 mph ENE15.3 kmh ENE 13.6 mph21.9 kmh 29.37 in994.6 mb 0.00 in0.0 mm 0.00 in0.0 mm 0.00 in0.0 mm
02:40 PM 31.8°F-0.1°C 22.5°F-5.3°C 68% 12.5 mph NE20.1 kmh NE 16.8 mph27.0 kmh 29.37 in994.6 mb 0.00 in0.0 mm 0.00 in0.0 mm 0.00 in0.0 mm
02:50 PM 32.0°F0.0°C 22.7°F-5.2°C 68% 9.1 mph NE14.6 kmh NE 13.0 mph20.9 kmh 29.37 in994.6 mb 0.00 in0.0 mm 0.00 in0.0 mm 0.00 in0.0 mm
03:00 PM 31.8°F-0.1°C 22.1°F-5.5°C 67% 10.4 mph ENE16.7 kmh ENE 13.6 mph21.9 kmh 29.37 in994.6 mb 0.00 in0.0 mm 0.00 in0.0 mm 0.00 in0.0 mm
03:10 PM 31.8°F-0.1°C 22.1°F-5.5°C 67% 9.7 mph NNE15.6 kmh NNE 14.5 mph23.3 kmh 29.38 in994.9 mb 0.00 in0.0 mm 0.00 in0.0 mm 0.00 in0.0 mm
03:20 PM 31.6°F-0.2°C 21.6°F-5.8°C 66% 11.3 mph NE18.2 kmh NE 15.9 mph25.6 kmh 29.38 in994.9 mb 0.00 in0.0 mm 0.00 in0.0 mm 0.00 in0.0 mm
03:30 PM 31.6°F-0.2°C 21.6°F-5.8°C 66% 11.6 mph E18.7 kmh E 14.5 mph23.3 kmh 29.39 in995.3 mb 0.00 in0.0 mm 0.00 in0.0 mm 0.00 in0.0 mm
03:40 PM 31.6°F-0.2°C 21.3°F-5.9°C 65% 11.7 mph NE18.8 kmh NE 14.5 mph23.3 kmh 29.39 in995.3 mb 0.00 in0.0 mm 0.00 in0.0 mm 0.00 in0.0 mm
03:50 PM 31.6°F-0.2°C 21.3°F-5.9°C 65% 10.6 mph NE17.1 kmh NE 13.6 mph21.9 kmh 29.38 in994.9 mb 0.00 in0.0 mm 0.00 in0.0 mm 0.00 in0.0 mm
04:00 PM 31.5°F-0.3°C 21.1°F-6.1°C 65% 12.3 mph NE19.8 kmh NE 15.2 mph24.5 kmh 29.39 in995.3 mb 0.00 in0.0 mm 0.00 in0.0 mm 0.00 in0.0 mm
04:10 PM 31.5°F-0.3°C 20.7°F-6.3°C 64% 13.2 mph ENE21.2 kmh ENE 19.0 mph30.6 kmh 29.39 in995.3 mb 0.00 in0.0 mm 0.00 in0.0 mm 0.00 in0.0 mm
04:20 PM 31.3°F-0.4°C 20.5°F-6.4°C 64% 10.3 mph NE16.6 kmh NE 15.9 mph25.6 kmh 29.39 in995.3 mb 0.00 in0.0 mm 0.00 in0.0 mm 0.00 in0.0 mm
04:30 PM 31.3°F-0.4°C 20.2°F-6.6°C 63% 11.4 mph NE18.3 kmh NE 14.5 mph23.3 kmh 29.39 in995.3 mb 0.00 in0.0 mm 0.00 in0.0 mm 0.00 in0.0 mm
04:40 PM 31.3°F-0.4°C 20.2°F-6.6°C 63% 10.7 mph NE17.2 kmh NE 13.6 mph21.9 kmh 29.40 in995.6 mb 0.00 in0.0 mm 0.00 in0.0 mm 0.00 in0.0 mm
04:50 PM 31.3°F-0.4°C 20.2°F-6.6°C 63% 10.6 mph ENE17.1 kmh ENE 15.9 mph25.6 kmh 29.40 in995.6 mb 0.00 in0.0 mm 0.00 in0.0 mm 0.00 in0.0 mm
05:00 PM 31.3°F-0.4°C 20.2°F-6.6°C 63% 9.4 mph NE15.1 kmh NE 11.4 mph18.3 kmh 29.40 in995.6 mb 0.00 in0.0 mm 0.00 in0.0 mm 0.00 in0.0 mm
05:10 PM 31.1°F-0.5°C 20.4°F-6.4°C 64% 10.2 mph NE16.4 kmh NE 14.5 mph23.3 kmh 29.41 in995.9 mb 0.00 in0.0 mm 0.00 in0.0 mm 0.00 in0.0 mm
05:20 PM 31.1°F-0.5°C 20.4°F-6.4°C 64% 9.3 mph NE15.0 kmh NE 13.0 mph20.9 kmh 29.41 in995.9 mb 0.00 in0.0 mm 0.00 in0.0 mm 0.00 in0.0 mm
05:30 PM 30.9°F-0.6°C 20.2°F-6.6°C 64% 8.7 mph NE14.0 kmh NE 13.6 mph21.9 kmh 29.41 in995.9 mb 0.00 in0.0 mm 0.00 in0.0 mm 0.00 in0.0 mm
05:40 PM 30.7°F-0.7°C 20.0°F-6.7°C 64% 9.9 mph NE15.9 kmh NE 13.0 mph20.9 kmh 29.42 in996.3 mb 0.00 in0.0 mm 0.00 in0.0 mm 0.00 in0.0 mm
05:50 PM 30.7°F-0.7°C 19.7°F-6.8°C 63% 10.6 mph NE17.1 kmh NE 13.6 mph21.9 kmh 29.42 in996.3 mb 0.00 in0.0 mm 0.00 in0.0 mm 0.00 in0.0 mm
06:00 PM 30.6°F-0.8°C 19.5°F-6.9°C 63% 10.1 mph NE16.3 kmh NE 13.6 mph21.9 kmh 29.43 in996.6 mb 0.00 in0.0 mm 0.00 in0.0 mm 0.00 in0.0 mm
06:10 PM 30.6°F-0.8°C 19.5°F-6.9°C 63% 11.7 mph NE18.8 kmh NE 14.5 mph23.3 kmh 29.43 in996.6 mb 0.00 in0.0 mm 0.00 in0.0 mm 0.00 in0.0 mm
06:20 PM 30.6°F-0.8°C 19.5°F-6.9°C 63% 11.2 mph NE18.0 kmh NE 13.6 mph21.9 kmh 29.43 in996.6 mb 0.00 in0.0 mm 0.00 in0.0 mm 0.00 in0.0 mm
06:30 PM 30.4°F-0.9°C 19.3°F-7.1°C 63% 10.0 mph NE16.1 kmh NE 14.5 mph23.3 kmh 29.43 in996.6 mb 0.00 in0.0 mm 0.00 in0.0 mm 0.00 in0.0 mm
06:40 PM 30.4°F-0.9°C 19.3°F-7.1°C 63% 8.5 mph NE13.7 kmh NE 12.1 mph19.5 kmh 29.45 in997.3 mb 0.00 in0.0 mm 0.00 in0.0 mm 0.00 in0.0 mm
06:50 PM 30.4°F-0.9°C 19.3°F-7.1°C 63% 10.9 mph ENE17.5 kmh ENE 15.2 mph24.5 kmh 29.44 in997.0 mb 0.00 in0.0 mm 0.00 in0.0 mm 0.00 in0.0 mm
07:00 PM 30.2°F-1.0°C 19.5°F-6.9°C 64% 7.5 mph NE12.1 kmh NE 12.1 mph19.5 kmh 29.45 in997.3 mb 0.00 in0.0 mm 0.00 in0.0 mm 0.00 in0.0 mm
07:10 PM 30.2°F-1.0°C 19.2°F-7.1°C 63% 9.3 mph NE15.0 kmh NE 10.7 mph17.2 kmh 29.45 in997.3 mb 0.00 in0.0 mm 0.00 in0.0 mm 0.00 in0.0 mm
07:20 PM 30.2°F-1.0°C 19.5°F-6.9°C 64% 7.7 mph NE12.4 kmh NE 9.8 mph15.8 kmh 29.45 in997.3 mb 0.00 in0.0 mm 0.00 in0.0 mm 0.00 in0.0 mm
07:30 PM 30.2°F-1.0°C 19.5°F-6.9°C 64% 7.5 mph ENE12.1 kmh ENE 13.0 mph20.9 kmh 29.45 in997.3 mb 0.00 in0.0 mm 0.00 in0.0 mm 0.00 in0.0 mm
07:40 PM 30.0°F-1.1°C 19.4°F-7.0°C 64% 6.2 mph NE10.0 kmh NE 9.2 mph14.8 kmh 29.46 in997.6 mb 0.00 in0.0 mm 0.00 in0.0 mm 0.00 in0.0 mm
07:50 PM 29.8°F-1.2°C 19.5°F-6.9°C 65% 7.2 mph NE11.6 kmh NE 9.2 mph14.8 kmh 29.46 in997.6 mb 0.00 in0.0 mm 0.00 in0.0 mm 0.00 in0.0 mm
08:00 PM 29.7°F-1.3°C 19.4°F-7.0°C 65% 7.3 mph NE11.7 kmh NE 9.2 mph14.8 kmh 29.46 in997.6 mb 0.00 in0.0 mm 0.00 in0.0 mm 0.00 in0.0 mm
08:10 PM 29.7°F-1.3°C 19.4°F-7.0°C 65% 6.8 mph NE10.9 kmh NE 9.8 mph15.8 kmh 29.46 in997.6 mb 0.00 in0.0 mm 0.00 in0.0 mm 0.00 in0.0 mm
08:20 PM 29.7°F-1.3°C 19.7°F-6.8°C 66% 6.9 mph NE11.1 kmh NE 11.4 mph18.3 kmh 29.46 in997.6 mb 0.00 in0.0 mm 0.00 in0.0 mm 0.00 in0.0 mm
08:30 PM 29.7°F-1.3°C 19.7°F-6.8°C 66% 8.3 mph NE13.4 kmh NE 12.1 mph19.5 kmh 29.46 in997.6 mb 0.00 in0.0 mm 0.00 in0.0 mm 0.00 in0.0 mm
08:40 PM 29.5°F-1.4°C 19.6°F-6.9°C 66% 8.7 mph ENE14.0 kmh ENE 10.7 mph17.2 kmh 29.46 in997.6 mb 0.00 in0.0 mm 0.00 in0.0 mm 0.00 in0.0 mm
08:50 PM 29.7°F-1.3°C 19.7°F-6.8°C 66% 7.8 mph ENE12.6 kmh ENE 9.8 mph15.8 kmh 29.47 in998.0 mb 0.00 in0.0 mm 0.00 in0.0 mm 0.00 in0.0 mm
09:00 PM 29.7°F-1.3°C 19.4°F-7.0°C 65% 10.0 mph ENE16.1 kmh ENE 13.6 mph21.9 kmh 29.47 in998.0 mb 0.00 in0.0 mm 0.00 in0.0 mm 0.00 in0.0 mm
09:10 PM 29.7°F-1.3°C 19.4°F-7.0°C 65% 8.6 mph NE13.8 kmh NE 10.7 mph17.2 kmh 29.47 in998.0 mb 0.00 in0.0 mm 0.00 in0.0 mm 0.00 in0.0 mm
09:20 PM 29.7°F-1.3°C 19.4°F-7.0°C 65% 9.3 mph NE15.0 kmh NE 11.4 mph18.3 kmh 29.47 in998.0 mb 0.00 in0.0 mm 0.00 in0.0 mm 0.00 in0.0 mm
09:30 PM 29.7°F-1.3°C 19.7°F-6.8°C 66% 9.3 mph NE15.0 kmh NE 12.1 mph19.5 kmh 29.47 in998.0 mb 0.00 in0.0 mm 0.00 in0.0 mm 0.00 in0.0 mm
09:40 PM 29.5°F-1.4°C 19.6°F-6.9°C 66% 11.0 mph NE17.7 kmh NE 15.9 mph25.6 kmh 29.47 in998.0 mb 0.00 in0.0 mm 0.00 in0.0 mm 0.00 in0.0 mm
09:50 PM 29.3°F-1.5°C 20.4°F-6.4°C 69% 10.8 mph ENE17.4 kmh ENE 17.4 mph28.0 kmh 29.47 in998.0 mb 0.00 in0.0 mm 0.00 in0.0 mm 0.00 in0.0 mm
10:00 PM 28.8°F-1.8°C 20.6°F-6.3°C 71% 10.7 mph NE17.2 kmh NE 13.0 mph20.9 kmh 29.47 in998.0 mb 0.00 in0.0 mm 0.00 in0.0 mm 0.00 in0.0 mm
10:10 PM 28.4°F-2.0°C 20.9°F-6.2°C 73% 8.8 mph NE14.2 kmh NE 10.7 mph17.2 kmh 29.47 in998.0 mb 0.00 in0.0 mm 0.00 in0.0 mm 0.00 in0.0 mm
10:20 PM 28.4°F-2.0°C 21.5°F-5.8°C 75% 8.4 mph NNE13.5 kmh NNE 10.7 mph17.2 kmh 29.47 in998.0 mb 0.00 in0.0 mm 0.00 in0.0 mm 0.00 in0.0 mm
10:30 PM 28.4°F-2.0°C 21.5°F-5.8°C 75% 8.3 mph N13.4 kmh N 8.3 mph13.4 kmh 29.46 in997.6 mb 0.00 in0.0 mm 0.00 in0.0 mm 0.00 in0.0 mm
10:40 PM 28.4°F-2.0°C 21.5°F-5.8°C 75% 8.3 mph N13.4 kmh N 8.3 mph13.4 kmh 29.46 in997.6 mb 0.00 in0.0 mm 0.00 in0.0 mm 0.00 in0.0 mm
10:50 PM 28.4°F-2.0°C 21.5°F-5.8°C 75% 8.3 mph N13.4 kmh N 8.3 mph13.4 kmh 29.47 in998.0 mb 0.00 in0.0 mm 0.00 in0.0 mm 0.00 in0.0 mm
11:00 PM 28.4°F-2.0°C 21.5°F-5.8°C 75% 8.3 mph N13.4 kmh N 8.3 mph13.4 kmh 29.48 in998.3 mb 0.00 in0.0 mm 0.00 in0.0 mm 0.00 in0.0 mm
11:10 PM 28.4°F-2.0°C 21.5°F-5.8°C 75% 8.3 mph N13.4 kmh N 8.3 mph13.4 kmh 29.47 in998.0 mb 0.00 in0.0 mm 0.00 in0.0 mm 0.00 in0.0 mm
11:20 PM 28.4°F-2.0°C 21.5°F-5.8°C 75% 8.3 mph N13.4 kmh N 8.3 mph13.4 kmh 29.47 in998.0 mb 0.00 in0.0 mm 0.00 in0.0 mm 0.00 in0.0 mm
11:30 PM 28.4°F-2.0°C 21.5°F-5.8°C 75% 8.3 mph N13.4 kmh N 8.3 mph13.4 kmh 29.47 in998.0 mb 0.00 in0.0 mm 0.00 in0.0 mm 0.00 in0.0 mm
11:40 PM 28.4°F-2.0°C 21.5°F-5.8°C 75% 8.3 mph N13.4 kmh N 8.3 mph13.4 kmh 29.47 in998.0 mb 0.00 in0.0 mm 0.00 in0.0 mm 0.00 in0.0 mm
11:50 PM 28.4°F-2.0°C 21.5°F-5.8°C 75% 8.3 mph N13.4 kmh N 8.3 mph13.4 kmh 29.47 in998.0 mb 0.00 in0.0 mm 0.00 in0.0 mm 0.00 in0.0 mm